createdAt,value
2023-05-14T00:01:35.993Z,5.97
2023-05-14T00:04:04.965Z,5.70
2023-05-14T00:06:33.005Z,6.20
2023-05-14T00:09:26.307Z,6.03
2023-05-14T00:11:54.356Z,5.40
2023-05-14T00:14:22.357Z,6.33
2023-05-14T00:16:50.533Z,6.30
2023-05-14T00:19:19.083Z,6.30
2023-05-14T00:21:47.892Z,4.90
2023-05-14T00:24:17.236Z,6.13
2023-05-14T00:26:45.280Z,6.33
2023-05-14T00:29:13.478Z,6.80
2023-05-14T00:31:41.623Z,7.20
2023-05-14T00:34:09.736Z,6.93
2023-05-14T00:36:38.016Z,6.97
2023-05-14T00:39:06.027Z,8.53
2023-05-14T00:41:35.778Z,6.90
2023-05-14T00:44:03.910Z,5.10
2023-05-14T00:46:32.483Z,5.33
2023-05-14T00:49:01.181Z,4.40
2023-05-14T00:51:29.256Z,5.90
2023-05-14T00:53:57.436Z,4.80
2023-05-14T00:56:26.666Z,4.13
2023-05-14T00:58:56.153Z,3.97
2023-05-14T01:01:24.469Z,5.03
2023-05-14T01:03:53.454Z,3.70
2023-05-14T01:06:29.845Z,4.03
2023-05-14T01:09:06.943Z,3.73
2023-05-14T01:11:41.263Z,4.03
2023-05-14T01:14:21.464Z,5.43
2023-05-14T01:16:51.908Z,4.10
2023-05-14T01:19:28.432Z,4.50
2023-05-14T01:21:59.194Z,5.67
2023-05-14T01:24:27.537Z,5.17
2023-05-14T01:30:05.825Z,5.10
2023-05-14T01:32:42.835Z,8.57
2023-05-14T01:35:40.332Z,3.90
2023-05-14T01:38:13.751Z,6.57
2023-05-14T01:40:45.347Z,6.20
2023-05-14T01:43:44.324Z,6.20
2023-05-14T01:46:12.602Z,6.47
2023-05-14T01:48:41.394Z,7.27
2023-05-14T01:51:09.812Z,6.50
2023-05-14T01:53:39.157Z,9.83
2023-05-14T01:56:07.911Z,9.40
2023-05-14T01:58:36.033Z,6.90
2023-05-14T02:01:04.117Z,8.00
2023-05-14T02:03:32.143Z,6.93
2023-05-14T02:06:00.346Z,6.17
2023-05-14T02:08:28.908Z,6.43
2023-05-14T02:10:58.314Z,6.90
2023-05-14T02:13:27.436Z,6.73
2023-05-14T02:15:55.450Z,6.03
2023-05-14T02:18:23.474Z,6.00
2023-05-14T02:20:51.462Z,7.53
2023-05-14T02:23:25.657Z,6.73
2023-05-14T02:26:00.620Z,8.03
2023-05-14T02:28:28.659Z,6.30
2023-05-14T02:31:00.389Z,6.17
2023-05-14T02:33:29.247Z,6.07
2023-05-14T02:35:57.244Z,6.30
2023-05-14T02:38:27.374Z,6.40
2023-05-14T02:40:57.770Z,6.67
2023-05-14T02:43:27.127Z,6.93
2023-05-14T02:45:55.179Z,7.30
2023-05-14T02:48:23.227Z,6.20
2023-05-14T02:50:52.066Z,6.80
2023-05-14T02:53:20.293Z,6.77
2023-05-14T02:55:48.321Z,8.00
2023-05-14T02:58:48.413Z,7.60
2023-05-14T03:01:18.667Z,8.07
2023-05-14T03:03:47.346Z,6.30
2023-05-14T03:06:16.055Z,6.13
2023-05-14T03:08:44.199Z,6.93
2023-05-14T03:11:13.774Z,6.80
2023-05-14T03:13:41.802Z,6.83
2023-05-14T03:16:11.373Z,6.77
2023-05-14T03:18:39.498Z,6.60
2023-05-14T03:21:09.996Z,6.93
2023-05-14T03:23:38.098Z,6.23
2023-05-14T03:26:06.319Z,6.87
2023-05-14T03:28:34.361Z,7.30
2023-05-14T03:31:02.557Z,8.50
2023-05-14T03:33:33.033Z,8.27
2023-05-14T03:36:01.114Z,6.73
2023-05-14T03:38:29.067Z,8.77
2023-05-14T03:40:59.075Z,6.80
2023-05-14T03:43:27.481Z,6.93
2023-05-14T03:45:56.119Z,7.30
2023-05-14T03:48:24.429Z,9.67
2023-05-14T03:50:53.926Z,6.20
2023-05-14T03:53:21.998Z,6.23
2023-05-14T03:55:50.136Z,8.30
2023-05-14T03:58:18.812Z,7.00
2023-05-14T04:00:46.957Z,8.17
2023-05-14T04:03:15.585Z,7.33
2023-05-14T04:05:43.778Z,5.83
2023-05-14T04:08:13.333Z,7.90
2023-05-14T04:10:41.456Z,8.40
2023-05-14T04:13:09.539Z,7.33
2023-05-14T04:15:40.112Z,7.53
2023-05-14T04:18:09.142Z,6.70
2023-05-14T04:20:37.773Z,7.70
2023-05-14T04:23:05.815Z,6.93
2023-05-14T04:25:35.253Z,6.40
2023-05-14T04:28:32.412Z,8.00
2023-05-14T04:31:00.514Z,8.17
2023-05-14T04:33:28.540Z,6.47
2023-05-14T04:35:56.540Z,8.20
2023-05-14T04:38:24.588Z,9.87
2023-05-14T04:40:53.936Z,8.33
2023-05-14T04:43:22.058Z,8.53
2023-05-14T04:45:50.090Z,6.73
2023-05-14T04:48:18.119Z,7.90
2023-05-14T04:50:46.257Z,8.17
2023-05-14T04:53:14.305Z,8.77
2023-05-14T04:55:42.334Z,7.10
2023-05-14T04:58:11.761Z,8.70
2023-05-14T05:00:40.058Z,7.93
2023-05-14T05:03:08.695Z,7.77
2023-05-14T05:05:36.824Z,7.00
2023-05-14T05:08:05.516Z,6.83
2023-05-14T05:10:33.628Z,7.97
2023-05-14T05:13:02.103Z,7.30
2023-05-14T05:15:31.447Z,7.63
2023-05-14T05:17:59.529Z,8.43
2023-05-14T05:20:28.241Z,7.50
2023-05-14T05:22:57.034Z,7.63
2023-05-14T05:25:25.199Z,7.33
2023-05-14T05:27:53.272Z,6.83
2023-05-14T05:30:21.486Z,8.37
2023-05-14T05:32:51.131Z,9.13
2023-05-14T05:35:19.423Z,8.20
2023-05-14T05:37:47.409Z,8.73
2023-05-14T05:40:15.758Z,8.90
2023-05-14T05:42:43.940Z,7.97
2023-05-14T05:45:12.557Z,7.07
2023-05-14T05:47:40.817Z,7.40
2023-05-14T05:50:12.173Z,8.40
2023-05-14T05:52:40.505Z,7.20
2023-05-14T05:55:09.791Z,9.20
2023-05-14T05:57:37.776Z,6.73
2023-05-14T06:00:13.171Z,8.57
2023-05-14T06:02:42.796Z,7.50
2023-05-14T06:05:12.633Z,11.13
2023-05-14T06:07:40.865Z,7.37
2023-05-14T06:10:09.935Z,8.03
2023-05-14T06:12:37.966Z,7.10
2023-05-14T06:15:07.516Z,8.97
2023-05-14T06:17:35.637Z,8.00
2023-05-14T06:20:05.502Z,9.23
2023-05-14T06:22:35.018Z,8.30
2023-05-14T06:25:05.534Z,10.60
2023-05-14T06:27:36.203Z,7.77
2023-05-14T06:30:04.699Z,9.20
2023-05-14T06:32:32.772Z,7.13
2023-05-14T06:35:00.878Z,7.93
2023-05-14T06:37:31.182Z,8.57
2023-05-14T06:40:05.634Z,9.23
2023-05-14T06:42:33.956Z,8.43
2023-05-14T06:45:02.128Z,7.00
2023-05-14T06:47:30.185Z,8.97
2023-05-14T06:49:58.630Z,8.97
2023-05-14T06:52:27.037Z,8.93
2023-05-14T06:54:55.173Z,9.07
2023-05-14T06:57:24.525Z,7.83
2023-05-14T06:59:52.557Z,9.30
2023-05-14T07:02:20.858Z,8.07
2023-05-14T07:04:48.986Z,7.93
2023-05-14T07:07:20.555Z,11.33
2023-05-14T07:09:48.733Z,8.27
2023-05-14T07:12:16.716Z,7.90
2023-05-14T07:14:46.748Z,9.90
2023-05-14T07:17:16.156Z,9.83
2023-05-14T07:19:44.208Z,11.77
2023-05-14T07:22:13.822Z,8.80
2023-05-14T07:24:41.860Z,11.97
2023-05-14T07:27:10.000Z,10.13
2023-05-14T07:29:38.046Z,10.00
2023-05-14T07:32:07.596Z,9.60
2023-05-14T07:34:35.742Z,9.40
2023-05-14T07:37:04.173Z,8.97
2023-05-14T07:39:32.257Z,8.90
2023-05-14T07:42:01.323Z,9.73
2023-05-14T07:44:29.383Z,8.60
2023-05-14T07:46:57.377Z,10.90
2023-05-14T07:49:26.914Z,10.03
2023-05-14T07:51:54.895Z,9.03
2023-05-14T07:54:22.893Z,9.97
2023-05-14T07:56:50.930Z,10.03
2023-05-14T07:59:18.925Z,10.27
2023-05-14T08:01:46.975Z,10.13
2023-05-14T08:04:16.196Z,9.03
2023-05-14T08:06:45.673Z,7.70
2023-05-14T08:09:13.906Z,11.50
2023-05-14T08:11:41.988Z,10.40
2023-05-14T08:14:09.992Z,9.30
2023-05-14T08:16:38.574Z,10.07
2023-05-14T08:19:06.938Z,14.07
2023-05-14T08:21:35.010Z,9.90
2023-05-14T08:24:05.173Z,12.00
2023-05-14T08:26:33.234Z,9.67
2023-05-14T08:29:01.200Z,13.30
2023-05-14T08:31:29.284Z,11.13
2023-05-14T08:33:57.624Z,11.93
2023-05-14T08:36:25.647Z,11.27
2023-05-14T08:38:53.751Z,10.37
2023-05-14T08:41:23.306Z,9.87
2023-05-14T08:44:05.055Z,10.77
2023-05-14T08:46:33.890Z,11.63
2023-05-14T08:49:12.337Z,9.80
2023-05-14T08:51:40.724Z,10.73
2023-05-14T08:54:09.061Z,10.17
2023-05-14T08:56:39.772Z,10.30
2023-05-14T08:59:07.783Z,10.23
2023-05-14T09:01:39.451Z,11.40
2023-05-14T09:04:08.569Z,9.77
2023-05-14T09:06:38.437Z,10.60
2023-05-14T09:09:06.897Z,10.87
2023-05-14T09:11:34.969Z,10.17
2023-05-14T09:14:04.652Z,10.37
2023-05-14T09:16:32.800Z,11.17
2023-05-14T09:19:00.926Z,11.13
2023-05-14T09:21:32.212Z,10.77
2023-05-14T09:24:01.967Z,9.70
2023-05-14T09:26:34.831Z,10.23
2023-05-14T09:29:05.070Z,9.80
2023-05-14T09:31:34.554Z,9.27
2023-05-14T09:34:02.561Z,9.50
2023-05-14T09:36:31.573Z,7.87
2023-05-14T09:38:59.601Z,9.77
2023-05-14T09:41:27.644Z,10.17
2023-05-14T09:43:56.830Z,9.97
2023-05-14T09:46:30.164Z,9.17
2023-05-14T09:48:58.744Z,10.60
2023-05-14T09:51:26.769Z,10.60
2023-05-14T09:53:56.156Z,8.80
2023-05-14T09:56:24.214Z,11.60
2023-05-14T09:58:54.967Z,11.13
2023-05-14T10:01:26.828Z,11.23
2023-05-14T10:03:55.861Z,14.50
2023-05-14T10:06:28.470Z,9.23
2023-05-14T10:09:00.167Z,12.87
2023-05-14T10:11:34.405Z,8.70
2023-05-14T10:14:08.562Z,8.83
2023-05-14T10:16:48.861Z,7.97
2023-05-14T10:19:18.730Z,10.97
2023-05-14T10:21:50.327Z,10.13
2023-05-14T10:24:19.695Z,7.50
2023-05-14T10:26:48.512Z,8.80
2023-05-14T10:29:16.528Z,9.00
2023-05-14T10:31:51.603Z,9.27
2023-05-14T10:34:34.578Z,8.90
2023-05-14T10:37:03.467Z,9.27
2023-05-14T10:39:46.399Z,9.83
2023-05-14T10:42:17.928Z,10.20
2023-05-14T10:44:55.470Z,8.37
2023-05-14T10:47:25.441Z,8.87
2023-05-14T10:49:56.853Z,9.00
2023-05-14T10:52:25.984Z,9.10
2023-05-14T10:54:56.829Z,11.57
2023-05-14T10:57:28.100Z,9.53
2023-05-14T10:59:58.922Z,9.73
2023-05-14T11:02:29.972Z,8.07
2023-05-14T11:05:03.533Z,8.07
2023-05-14T11:07:33.878Z,8.27
2023-05-14T11:10:05.932Z,7.77
2023-05-14T11:12:35.357Z,8.93
2023-05-14T11:15:06.763Z,8.70
2023-05-14T11:17:37.403Z,7.90
2023-05-14T11:20:08.060Z,9.50
2023-05-14T11:22:37.357Z,9.93
2023-05-14T11:25:07.259Z,8.90
2023-05-14T11:27:36.661Z,11.30
2023-05-14T11:30:06.572Z,9.90
2023-05-14T11:32:36.611Z,9.97
2023-05-14T11:35:05.887Z,10.53
2023-05-14T11:37:33.945Z,10.53
2023-05-14T11:40:02.892Z,8.17
2023-05-14T11:42:30.924Z,6.97
2023-05-14T11:44:59.052Z,8.77
2023-05-14T11:47:27.074Z,8.03
2023-05-14T11:49:56.477Z,8.20
2023-05-14T11:52:24.488Z,6.80
2023-05-14T11:54:52.475Z,9.87
2023-05-14T11:57:22.582Z,7.73
2023-05-14T11:59:57.063Z,7.53
2023-05-14T12:02:27.776Z,6.77
2023-05-14T12:04:58.310Z,7.47
2023-05-14T12:07:31.115Z,5.83
2023-05-14T12:10:04.011Z,6.50
2023-05-14T12:12:37.264Z,5.83
2023-05-14T12:15:13.152Z,6.60
2023-05-14T12:17:41.469Z,6.90
2023-05-14T12:20:12.998Z,5.53
2023-05-14T12:22:43.227Z,7.37
2023-05-14T12:25:17.196Z,6.33
2023-05-14T12:27:46.357Z,6.77
2023-05-14T12:32:46.758Z,6.17
2023-05-14T12:35:16.364Z,6.50
2023-05-14T12:37:44.365Z,7.20
2023-05-14T12:40:13.414Z,5.30
2023-05-14T12:42:41.529Z,6.67
2023-05-14T12:45:10.256Z,6.33
2023-05-14T12:47:38.548Z,5.97
2023-05-14T12:50:08.414Z,5.47
2023-05-14T12:52:39.763Z,5.50
2023-05-14T12:55:09.936Z,6.80
2023-05-14T12:57:39.275Z,6.50
2023-05-14T13:00:32.439Z,6.67
2023-05-14T13:03:24.720Z,4.30
2023-05-14T13:13:21.853Z,5.53
2023-05-14T13:17:04.846Z,8.83
2023-05-14T13:24:34.661Z,6.53
2023-05-14T13:27:09.324Z,5.67
2023-05-14T13:29:37.883Z,5.17
2023-05-14T13:32:08.273Z,6.10
2023-05-14T13:34:36.500Z,5.80
2023-05-14T13:37:04.817Z,8.13
2023-05-14T13:39:32.942Z,6.13
2023-05-14T13:42:01.301Z,4.67
2023-05-14T13:44:30.766Z,6.23
2023-05-14T13:46:58.953Z,7.47
2023-05-14T13:49:27.027Z,6.00
2023-05-14T13:51:54.983Z,5.60
2023-05-14T13:54:23.928Z,6.73
2023-05-14T13:56:52.009Z,6.23
2023-05-14T13:59:20.435Z,5.10
2023-05-14T14:01:51.474Z,5.90
2023-05-14T14:04:20.920Z,6.13
2023-05-14T14:06:48.978Z,4.67
2023-05-14T14:09:17.020Z,5.97
2023-05-14T14:11:45.059Z,6.47
2023-05-14T14:14:13.070Z,5.23
2023-05-14T14:17:11.569Z,5.00
2023-05-14T14:19:39.538Z,4.20
2023-05-14T14:22:08.808Z,4.33
2023-05-14T14:24:36.829Z,5.17
2023-05-14T14:27:07.635Z,5.10
2023-05-14T14:29:36.702Z,3.80
2023-05-14T14:32:06.155Z,5.23
2023-05-14T14:34:35.772Z,3.70
2023-05-14T14:37:03.775Z,6.17
2023-05-14T14:39:31.777Z,4.80
2023-05-14T14:41:59.823Z,4.30
2023-05-14T14:44:27.841Z,4.23
2023-05-14T14:46:55.842Z,4.63
2023-05-14T14:49:24.392Z,5.03
2023-05-14T14:51:53.763Z,5.83
2023-05-14T14:54:21.757Z,5.40
2023-05-14T14:56:53.071Z,4.27
2023-05-14T14:59:21.085Z,7.20
2023-05-14T15:01:49.529Z,4.47
2023-05-14T15:04:17.721Z,5.30
2023-05-14T15:06:45.768Z,8.13
2023-05-14T15:09:15.170Z,4.57
2023-05-14T15:11:43.256Z,5.77
2023-05-14T15:14:11.711Z,4.00
2023-05-14T15:16:39.786Z,5.07
2023-05-14T15:19:07.879Z,6.60
2023-05-14T15:21:36.430Z,5.73
2023-05-14T15:24:05.405Z,5.00
2023-05-14T15:26:37.467Z,4.40
2023-05-14T15:29:05.677Z,4.63
2023-05-14T15:31:34.128Z,4.13
2023-05-14T15:34:03.602Z,3.53
2023-05-14T15:36:32.154Z,3.73
2023-05-14T15:39:00.673Z,4.17
2023-05-14T15:41:34.390Z,5.37
2023-05-14T15:44:03.830Z,4.37
2023-05-14T15:46:32.152Z,4.90
2023-05-14T15:49:00.253Z,3.63
2023-05-14T15:51:53.421Z,3.97
2023-05-14T15:54:21.611Z,3.37
2023-05-14T15:56:49.650Z,5.97
2023-05-14T15:59:20.273Z,4.50
2023-05-14T16:01:50.071Z,3.33
2023-05-14T16:04:18.132Z,7.53
2023-05-14T16:06:46.237Z,3.70
2023-05-14T16:09:14.960Z,4.43
2023-05-14T16:11:43.162Z,4.90
2023-05-14T16:14:11.709Z,4.03
2023-05-14T16:16:41.143Z,2.73
2023-05-14T16:19:09.574Z,3.93
2023-05-14T16:21:37.814Z,4.80
2023-05-14T16:24:06.982Z,3.87
2023-05-14T16:26:35.177Z,3.73
2023-05-14T16:29:03.440Z,4.10
2023-05-14T16:31:32.059Z,5.30
2023-05-14T16:34:01.539Z,8.47
2023-05-14T16:36:29.698Z,5.20
2023-05-14T16:39:07.299Z,3.57
2023-05-14T16:41:37.493Z,3.90
2023-05-14T16:44:05.921Z,4.83
2023-05-14T16:46:34.593Z,3.73
2023-05-14T16:49:04.071Z,6.13
2023-05-14T16:51:32.804Z,4.07
2023-05-14T16:54:01.643Z,3.50
2023-05-14T16:56:30.287Z,4.17
2023-05-14T16:58:58.360Z,4.43
2023-05-14T17:01:27.413Z,4.60
2023-05-14T17:03:56.108Z,4.73
2023-05-14T17:06:25.719Z,5.00
2023-05-14T17:08:53.775Z,4.40
2023-05-14T17:11:21.815Z,4.57
2023-05-14T17:13:50.121Z,4.27
2023-05-14T17:16:18.327Z,6.90
2023-05-14T17:18:46.941Z,3.93
2023-05-14T17:21:15.225Z,4.20
2023-05-14T17:23:44.581Z,4.53
2023-05-14T17:26:15.255Z,5.40
2023-05-14T17:28:43.280Z,6.70
2023-05-14T17:31:11.487Z,3.97
2023-05-14T17:33:39.556Z,3.50
2023-05-14T17:36:32.773Z,4.73
2023-05-14T17:39:02.387Z,3.37
2023-05-14T17:41:30.522Z,4.40
2023-05-14T17:43:58.562Z,4.23
2023-05-14T17:46:26.883Z,5.33
2023-05-14T17:48:54.906Z,3.80
2023-05-14T17:51:22.906Z,4.17
2023-05-14T17:53:50.988Z,3.90
2023-05-14T17:56:20.940Z,4.20
2023-05-14T17:58:50.037Z,4.33
2023-05-14T18:01:18.318Z,4.40
2023-05-14T18:03:46.513Z,4.93
2023-05-14T18:06:15.013Z,6.53
2023-05-14T18:08:43.075Z,5.30
2023-05-14T18:11:11.268Z,4.30
2023-05-14T18:13:40.639Z,4.63
2023-05-14T18:16:09.185Z,4.07
2023-05-14T18:18:37.319Z,4.10
2023-05-14T18:21:05.553Z,3.57
2023-05-14T18:23:33.605Z,5.10
2023-05-14T18:26:02.304Z,4.80
2023-05-14T18:28:31.484Z,4.23
2023-05-14T18:31:00.952Z,4.80
2023-05-14T18:33:29.379Z,5.33
2023-05-14T18:35:58.520Z,4.83
2023-05-14T18:38:26.824Z,5.07
2023-05-14T18:40:54.873Z,5.57
2023-05-14T18:43:22.881Z,5.60
2023-05-14T18:45:50.909Z,5.03
2023-05-14T18:48:20.382Z,7.30
2023-05-14T18:50:48.447Z,8.00
2023-05-14T18:53:16.461Z,7.60
2023-05-14T18:55:44.604Z,6.63
2023-05-14T18:58:14.386Z,9.23
2023-05-14T19:00:42.508Z,11.40
2023-05-14T19:03:10.758Z,13.90
2023-05-14T19:05:40.545Z,18.53
2023-05-14T19:08:09.419Z,18.00
2023-05-14T19:10:38.337Z,11.93
2023-05-14T19:13:06.482Z,5.13
2023-05-14T19:15:34.850Z,3.33
2023-05-14T19:18:04.160Z,6.23
2023-05-14T19:20:32.325Z,5.57
2023-05-14T19:23:01.783Z,5.23
2023-05-14T19:25:30.559Z,7.10
2023-05-14T19:28:01.528Z,8.83
2023-05-14T19:30:29.631Z,9.30
2023-05-14T19:32:58.443Z,11.47
2023-05-14T19:35:26.729Z,8.03
2023-05-14T19:37:54.858Z,8.47
2023-05-14T19:40:24.591Z,7.30
2023-05-14T19:42:53.044Z,10.87
2023-05-14T19:45:21.133Z,6.90
2023-05-14T19:47:49.336Z,6.37
2023-05-14T19:50:17.659Z,6.20
2023-05-14T19:52:45.895Z,14.60
2023-05-14T19:55:14.068Z,11.83
2023-05-14T19:57:43.616Z,11.30
2023-05-14T20:00:14.373Z,7.60
2023-05-14T20:02:43.271Z,6.33
2023-05-14T20:05:15.924Z,7.00
2023-05-14T20:07:44.818Z,7.07
2023-05-14T20:10:12.852Z,6.10
2023-05-14T20:12:41.278Z,5.77
2023-05-14T20:15:11.899Z,6.37
2023-05-14T20:17:40.272Z,5.13
2023-05-14T20:20:10.055Z,4.50
2023-05-14T20:22:38.556Z,4.97
2023-05-14T20:25:08.028Z,4.13
2023-05-14T20:27:36.244Z,5.53
2023-05-14T20:30:04.789Z,4.93
2023-05-14T20:32:34.496Z,5.60
2023-05-14T20:35:02.835Z,7.90
2023-05-14T20:37:32.510Z,5.17
2023-05-14T20:40:02.326Z,6.13
2023-05-14T20:42:30.445Z,5.83
2023-05-14T20:44:58.631Z,5.77
2023-05-14T20:47:30.369Z,4.13
2023-05-14T20:49:59.894Z,5.40
2023-05-14T20:52:28.196Z,5.30
2023-05-14T20:54:56.197Z,4.97
2023-05-14T20:57:24.424Z,3.10
2023-05-14T20:59:52.618Z,4.00
2023-05-14T21:02:20.893Z,4.03
2023-05-14T21:04:49.222Z,7.37
2023-05-14T21:07:18.570Z,3.90
2023-05-14T21:09:52.102Z,3.90
2023-05-14T21:12:20.256Z,6.10
2023-05-14T21:14:48.383Z,4.23
2023-05-14T21:17:16.489Z,4.10
2023-05-14T21:19:44.673Z,3.97
2023-05-14T21:22:13.730Z,4.67
2023-05-14T21:24:43.179Z,3.87
2023-05-14T21:27:11.274Z,3.60
2023-05-14T21:29:39.603Z,4.40
2023-05-14T21:32:08.691Z,3.07
2023-05-14T21:34:36.999Z,4.67
2023-05-14T21:37:05.223Z,3.73
2023-05-14T21:39:33.292Z,4.73
2023-05-14T21:42:02.689Z,4.67
2023-05-14T21:44:30.689Z,5.60
2023-05-14T21:46:59.383Z,4.80
2023-05-14T21:49:27.520Z,4.17
2023-05-14T21:51:55.647Z,3.53
2023-05-14T21:54:23.689Z,4.53
2023-05-14T21:56:51.876Z,4.53
2023-05-14T21:59:21.435Z,3.93
2023-05-14T22:04:20.856Z,8.13
2023-05-14T22:06:49.135Z,6.47
2023-05-14T22:09:17.204Z,4.77
2023-05-14T22:11:45.198Z,4.47
2023-05-14T22:14:13.851Z,5.83
2023-05-14T22:16:43.495Z,5.53
2023-05-14T22:19:11.868Z,6.90
2023-05-14T22:21:39.999Z,4.07
2023-05-14T22:24:08.543Z,5.03
2023-05-14T22:26:36.653Z,5.57
2023-05-14T22:29:04.825Z,6.30
2023-05-14T22:31:32.946Z,4.97
2023-05-14T22:34:02.343Z,5.63
2023-05-14T22:36:30.536Z,6.30
2023-05-14T22:38:58.568Z,4.17
2023-05-14T22:41:26.690Z,4.60
2023-05-14T22:43:54.845Z,5.63
2023-05-14T22:46:22.968Z,5.97
2023-05-14T22:48:51.052Z,6.73
2023-05-14T22:51:20.454Z,5.33
2023-05-14T22:53:48.573Z,5.37
2023-05-14T22:56:17.868Z,6.87
2023-05-14T22:58:45.819Z,6.37
2023-05-14T23:01:13.891Z,5.40
2023-05-14T23:03:42.063Z,4.73
2023-05-14T23:06:10.032Z,7.77
2023-05-14T23:08:39.347Z,6.37
2023-05-14T23:11:07.602Z,3.97
2023-05-14T23:13:35.655Z,5.53
2023-05-14T23:16:05.934Z,5.30
2023-05-14T23:18:35.221Z,5.23
2023-05-14T23:21:03.472Z,4.73
2023-05-14T23:23:31.462Z,4.13
2023-05-14T23:26:01.064Z,4.43
2023-05-14T23:28:29.078Z,5.97
2023-05-14T23:30:57.081Z,4.40
2023-05-14T23:33:25.190Z,4.00
2023-05-14T23:35:53.339Z,5.37
2023-05-14T23:38:21.710Z,4.10
2023-05-14T23:40:50.131Z,4.33
2023-05-14T23:43:19.504Z,4.77
2023-05-14T23:45:47.599Z,4.27
2023-05-14T23:48:15.675Z,5.80
2023-05-14T23:50:43.898Z,4.33
2023-05-14T23:53:11.939Z,7.00
2023-05-14T23:55:40.033Z,4.77
2023-05-14T23:58:34.468Z,4.17
